Time;durP1;ratioP1;P1;durP2;ratioP2;P2;SDS_P1;SDS_P2;PMS_P1;PMS_P2;Temp;Humidity;BMP_temperature;BMP_pressure;BME280_temperature;BME280_humidity;BME280_pressure;Samples;Min_cycle;Max_cycle;Signal;HPM_P1;HPM_P2
2022/03/21 00:01:40;;;;;;;26.58;10.18;;;;;;;;;;5011423;28;20024;-61
2022/03/21 00:04:06;;;;;;;28.27;11.05;;;;;;;;;;4995757;28;20164;-60
2022/03/21 00:06:35;;;;;;;27.70;11.23;;;;;;;;;;4988959;28;20053;-61
2022/03/21 00:09:02;;;;;;;27.75;11.07;;;;;;;;;;4973802;28;20077;-59
2022/03/21 00:11:33;;;;;;;34.78;15.20;;;;;;;;;;4989931;28;20454;-59
2022/03/21 00:13:59;;;;;;;26.30;12.13;;;;;;;;;;4991865;28;20053;-60
2022/03/21 00:16:28;;;;;;;23.63;11.45;;;;;;;;;;4982783;28;20050;-58
2022/03/21 00:18:55;;;;;;;23.67;11.27;;;;;;;;;;4993729;28;20050;-58
2022/03/21 00:21:21;;;;;;;26.25;12.05;;;;;;;;;;4982326;28;20119;-59
2022/03/21 00:23:48;;;;;;;26.02;11.35;;;;;;;;;;4991923;28;20057;-60
2022/03/21 00:26:16;;;;;;;24.88;11.32;;;;;;;;;;4984647;28;20049;-58
2022/03/21 00:28:44;;;;;;;26.42;11.35;;;;;;;;;;5004651;28;20060;-60
2022/03/21 00:31:11;;;;;;;25.20;11.77;;;;;;;;;;5010968;28;20057;-59
2022/03/21 00:33:37;;;;;;;26.00;11.18;;;;;;;;;;4996792;28;20053;-57
2022/03/21 00:36:05;;;;;;;27.95;11.70;;;;;;;;;;5010872;28;20053;-59
2022/03/21 00:38:32;;;;;;;26.27;11.00;;;;;;;;;;4989149;28;20392;-58
2022/03/21 00:40:59;;;;;;;29.13;12.95;;;;;;;;;;4989315;28;20306;-58
2022/03/21 00:43:26;;;;;;;27.85;12.63;;;;;;;;;;4988363;28;20415;-58
2022/03/21 00:45:55;;;;;;;25.85;12.20;;;;;;;;;;4990619;28;20054;-58
2022/03/21 00:48:22;;;;;;;24.98;11.60;;;;;;;;;;4998599;28;20042;-60
2022/03/21 00:50:49;;;;;;;28.48;11.57;;;;;;;;;;4984218;28;20142;-59
2022/03/21 00:53:16;;;;;;;24.92;11.02;;;;;;;;;;4990571;28;20105;-58
2022/03/21 00:55:43;;;;;;;28.33;12.07;;;;;;;;;;4983089;28;20128;-58
2022/03/21 00:58:10;;;;;;;30.08;11.40;;;;;;;;;;5009803;28;20140;-59
2022/03/21 01:00:36;;;;;;;26.02;11.95;;;;;;;;;;5000409;28;20124;-59
2022/03/21 01:03:05;;;;;;;26.88;12.43;;;;;;;;;;4999227;28;20135;-59
2022/03/21 01:05:31;;;;;;;26.90;11.48;;;;;;;;;;5012483;28;20128;-57
2022/03/21 01:07:58;;;;;;;25.83;11.07;;;;;;;;;;4998189;28;20049;-60
2022/03/21 01:10:28;;;;;;;27.52;11.05;;;;;;;;;;5010161;28;20092;-58
2022/03/21 01:12:54;;;;;;;27.23;11.80;;;;;;;;;;4996691;28;20136;-59
2022/03/21 01:15:23;;;;;;;25.77;11.75;;;;;;;;;;5009589;28;20081;-59
2022/03/21 01:17:50;;;;;;;28.27;12.25;;;;;;;;;;5002275;28;20099;-59
2022/03/21 01:20:19;;;;;;;30.00;12.70;;;;;;;;;;4984201;28;20287;-58
2022/03/21 01:22:45;;;;;;;25.98;12.25;;;;;;;;;;4990404;28;20086;-61
2022/03/21 01:25:13;;;;;;;25.65;11.18;;;;;;;;;;4984741;28;20145;-59
2022/03/21 01:27:40;;;;;;;21.75;10.60;;;;;;;;;;4989863;28;20066;-58
2022/03/21 01:30:09;;;;;;;36.80;15.70;;;;;;;;;;4984594;28;20136;-59
2022/03/21 01:32:36;;;;;;;35.30;14.85;;;;;;;;;;4990576;28;20141;-58
2022/03/21 01:35:03;;;;;;;29.67;12.43;;;;;;;;;;4987741;28;20066;-58
2022/03/21 01:37:31;;;;;;;34.05;14.43;;;;;;;;;;4993423;28;20057;-62
2022/03/21 01:39:58;;;;;;;31.10;13.10;;;;;;;;;;4989206;28;20053;-62
2022/03/21 01:42:27;;;;;;;30.85;14.15;;;;;;;;;;4994542;28;20144;-59
2022/03/21 01:44:55;;;;;;;32.92;13.70;;;;;;;;;;4988775;28;20053;-56
2022/03/21 01:47:22;;;;;;;40.97;14.67;;;;;;;;;;4994122;28;20077;-58
2022/03/21 01:49:48;;;;;;;41.10;15.93;;;;;;;;;;4989156;28;20515;-58
2022/03/21 01:52:19;;;;;;;38.00;15.82;;;;;;;;;;4992581;28;20078;-58
2022/03/21 01:57:31;;;;;;;33.78;14.35;;;;;;;;;;4975356;28;20362;-58
2022/03/21 01:59:58;;;;;;;40.65;16.00;;;;;;;;;;4976352;28;20137;-58
2022/03/21 02:02:26;;;;;;;42.30;16.83;;;;;;;;;;5005387;28;20134;-59
2022/03/21 02:04:53;;;;;;;29.95;12.55;;;;;;;;;;5007709;28;20065;-57
2022/03/21 02:07:19;;;;;;;27.17;11.77;;;;;;;;;;5006875;28;20123;-58
2022/03/21 02:09:48;;;;;;;32.92;12.85;;;;;;;;;;5012839;28;20064;-58
2022/03/21 02:12:15;;;;;;;37.25;16.02;;;;;;;;;;4995080;28;20149;-60
2022/03/21 02:14:42;;;;;;;29.23;13.40;;;;;;;;;;5008754;28;20414;-59
2022/03/21 02:17:10;;;;;;;32.72;14.50;;;;;;;;;;5016499;28;20056;-59
2022/03/21 02:19:38;;;;;;;29.70;13.02;;;;;;;;;;5032969;28;20460;-58
2022/03/21 02:22:17;;;;;;;33.75;14.23;;;;;;;;;;5012571;28;20061;-61
2022/03/21 02:24:50;;;;;;;34.92;15.25;;;;;;;;;;5013149;28;20177;-57
2022/03/21 02:27:19;;;;;;;29.52;12.30;;;;;;;;;;5004170;28;20045;-58
2022/03/21 02:29:45;;;;;;;;;;;;;;;;;;5014918;28;20049;-59
2022/03/21 02:32:12;;;;;;;24.55;9.52;;;;;;;;;;5009257;28;20108;-58
2022/03/21 02:34:40;;;;;;;38.80;15.48;;;;;;;;;;5006278;28;20038;-58
2022/03/21 02:37:09;;;;;;;30.52;13.43;;;;;;;;;;4990413;28;20084;-58
2022/03/21 02:39:36;;;;;;;35.90;14.55;;;;;;;;;;5012445;28;20046;-56
2022/03/21 02:42:03;;;;;;;43.28;15.23;;;;;;;;;;5005493;28;20065;-59
2022/03/21 02:44:34;;;;;;;33.70;14.27;;;;;;;;;;5011024;28;20041;-60
2022/03/21 02:47:01;;;;;;;37.88;14.15;;;;;;;;;;5010971;28;20077;-59
2022/03/21 02:49:28;;;;;;;28.55;12.30;;;;;;;;;;5009202;28;20057;-59
2022/03/21 02:51:55;;;;;;;38.00;15.10;;;;;;;;;;5011762;28;20053;-58
2022/03/21 02:54:23;;;;;;;38.00;14.75;;;;;;;;;;4989090;28;20532;-61
2022/03/21 02:56:50;;;;;;;38.08;14.48;;;;;;;;;;4991938;28;20068;-59
2022/03/21 02:59:17;;;;;;;27.85;12.18;;;;;;;;;;5001006;28;20053;-62
2022/03/21 03:01:46;;;;;;;27.33;11.52;;;;;;;;;;5012031;28;20053;-58
2022/03/21 03:04:13;;;;;;;36.60;13.98;;;;;;;;;;5005709;28;20073;-61
2022/03/21 03:06:40;;;;;;;29.25;11.55;;;;;;;;;;5011678;28;20065;-62
2022/03/21 03:09:07;;;;;;;30.75;12.15;;;;;;;;;;4995359;28;20072;-62
2022/03/21 03:11:36;;;;;;;35.05;14.93;;;;;;;;;;4991086;28;20061;-58
2022/03/21 03:14:02;;;;;;;;;;;;;;;;;;4993483;28;20053;-58
2022/03/21 03:16:29;;;;;;;24.25;10.38;;;;;;;;;;5011728;28;19975;-58
2022/03/21 03:18:57;;;;;;;27.38;11.52;;;;;;;;;;4995013;28;20511;-59
2022/03/21 03:21:26;;;;;;;33.97;13.35;;;;;;;;;;4972858;28;20059;-60
2022/03/21 03:23:52;;;;;;;;;;;;;;;;;;4971289;28;21649;-61
2022/03/21 03:26:19;;;;;;;27.13;11.88;;;;;;;;;;5008719;28;19968;-61
2022/03/21 03:28:45;;;;;;;30.70;11.60;;;;;;;;;;5002994;28;20116;-58
2022/03/21 03:31:14;;;;;;;26.88;11.13;;;;;;;;;;4993095;28;20057;-62
2022/03/21 03:33:41;;;;;;;24.15;10.55;;;;;;;;;;4993051;28;20058;-64
2022/03/21 03:36:09;;;;;;;24.27;10.52;;;;;;;;;;4971222;28;20105;-61
2022/03/21 03:38:36;;;;;;;31.60;13.18;;;;;;;;;;4973231;28;20093;-63
2022/03/21 03:41:03;;;;;;;27.33;11.07;;;;;;;;;;4998887;28;20088;-57
2022/03/21 03:43:30;;;;;;;33.80;13.23;;;;;;;;;;5011147;28;20049;-57
2022/03/21 03:45:58;;;;;;;24.60;11.27;;;;;;;;;;5005120;28;20103;-56
2022/03/21 03:48:24;;;;;;;23.83;10.80;;;;;;;;;;5010732;28;20061;-57
2022/03/21 03:50:51;;;;;;;24.88;11.07;;;;;;;;;;5004216;28;20128;-58
2022/03/21 03:53:19;;;;;;;35.90;13.25;;;;;;;;;;5011642;28;20053;-58
2022/03/21 03:55:46;;;;;;;30.13;12.10;;;;;;;;;;4996608;28;20054;-57
2022/03/21 03:58:13;;;;;;;28.27;12.32;;;;;;;;;;4991947;28;20045;-58
2022/03/21 04:00:40;;;;;;;26.80;10.65;;;;;;;;;;4987156;28;20044;-58
2022/03/21 04:05:50;;;;;;;21.23;9.63;;;;;;;;;;4985507;28;20060;-57
2022/03/21 04:08:19;;;;;;;20.77;9.50;;;;;;;;;;4990539;28;20127;-59
2022/03/21 04:10:46;;;;;;;22.02;9.10;;;;;;;;;;4986377;28;20053;-59
2022/03/21 04:13:15;;;;;;;23.40;10.32;;;;;;;;;;4992413;28;20117;-55
2022/03/21 04:15:43;;;;;;;21.23;9.23;;;;;;;;;;4985197;28;20057;-56
2022/03/21 04:18:10;;;;;;;23.73;9.30;;;;;;;;;;4990870;28;20058;-55
2022/03/21 04:20:39;;;;;;;22.98;9.75;;;;;;;;;;4991022;28;20069;-57
2022/03/21 04:23:07;;;;;;;25.80;9.50;;;;;;;;;;4979615;28;20052;-57
2022/03/21 04:25:35;;;;;;;27.77;10.73;;;;;;;;;;4991026;28;20084;-56
2022/03/21 04:28:07;;;;;;;22.70;9.45;;;;;;;;;;4984869;28;20046;-56
2022/03/21 04:30:34;;;;;;;24.58;9.45;;;;;;;;;;4989200;28;20080;-57
2022/03/21 04:33:01;;;;;;;26.42;11.00;;;;;;;;;;4995245;28;20060;-58
2022/03/21 04:35:28;;;;;;;23.45;9.90;;;;;;;;;;4998985;28;20041;-58
2022/03/21 04:37:55;;;;;;;23.50;9.98;;;;;;;;;;4990819;28;20061;-57
2022/03/21 04:40:23;;;;;;;29.98;10.60;;;;;;;;;;4995390;28;20136;-57
2022/03/21 04:42:51;;;;;;;23.02;10.23;;;;;;;;;;4994123;28;20050;-58
2022/03/21 04:45:17;;;;;;;21.30;9.43;;;;;;;;;;4991609;28;20049;-56
2022/03/21 04:47:45;;;;;;;23.27;9.05;;;;;;;;;;4993530;28;20061;-56
2022/03/21 04:50:12;;;;;;;26.15;10.50;;;;;;;;;;5011736;28;20045;-57
2022/03/21 04:52:39;;;;;;;21.08;8.98;;;;;;;;;;5000779;28;20064;-60
2022/03/21 04:55:07;;;;;;;28.73;10.63;;;;;;;;;;4992645;28;20066;-57
2022/03/21 04:57:35;;;;;;;20.83;8.77;;;;;;;;;;4987166;28;20053;-59
2022/03/21 05:00:03;;;;;;;21.17;9.20;;;;;;;;;;4991606;28;20050;-56
2022/03/21 05:02:30;;;;;;;24.27;10.27;;;;;;;;;;4985190;28;20069;-61
2022/03/21 05:04:57;;;;;;;23.25;9.20;;;;;;;;;;4981952;28;20054;-61
2022/03/21 05:07:25;;;;;;;25.63;9.50;;;;;;;;;;4990634;28;20062;-57
2022/03/21 05:09:52;;;;;;;26.17;10.05;;;;;;;;;;4988508;28;20073;-57
2022/03/21 05:12:20;;;;;;;23.45;10.30;;;;;;;;;;4994753;28;20054;-56
2022/03/21 05:14:47;;;;;;;22.20;9.30;;;;;;;;;;4986049;28;20058;-54
2022/03/21 05:17:17;;;;;;;23.50;8.90;;;;;;;;;;4994611;28;20058;-61
2022/03/21 05:19:44;;;;;;;18.65;8.43;;;;;;;;;;4984096;28;20083;-60
2022/03/21 05:22:12;;;;;;;20.38;9.00;;;;;;;;;;4994903;28;20058;-57
2022/03/21 05:38:30;;;;;;;24.45;9.98;;;;;;;;;;4947062;28;20158;-62
2022/03/21 05:40:59;;;;;;;29.58;9.98;;;;;;;;;;4984447;28;20124;-62
2022/03/21 05:43:26;;;;;;;29.85;11.68;;;;;;;;;;4980312;28;20104;-60
2022/03/21 05:45:53;;;;;;;20.65;8.57;;;;;;;;;;4993772;28;20053;-57
2022/03/21 05:51:07;;;;;;;19.67;8.50;;;;;;;;;;4993194;28;20061;-58
2022/03/21 05:53:34;;;;;;;19.08;8.88;;;;;;;;;;4984044;28;20057;-58
2022/03/21 05:56:01;;;;;;;18.75;8.02;;;;;;;;;;4990023;28;20057;-58
2022/03/21 05:58:28;;;;;;;18.05;8.05;;;;;;;;;;4993929;28;20124;-58
2022/03/21 06:00:55;;;;;;;25.52;10.20;;;;;;;;;;4980657;28;20042;-59
2022/03/21 06:03:24;;;;;;;23.85;9.27;;;;;;;;;;4995679;28;20117;-61
2022/03/21 06:05:50;;;;;;;26.35;9.80;;;;;;;;;;5002397;28;20116;-61
2022/03/21 06:08:17;;;;;;;19.25;8.50;;;;;;;;;;5015609;28;20052;-62
2022/03/21 06:10:44;;;;;;;21.98;8.80;;;;;;;;;;5010601;28;20068;-60
2022/03/21 06:13:11;;;;;;;24.58;9.55;;;;;;;;;;5008122;28;20059;-57
2022/03/21 06:15:39;;;;;;;26.20;10.77;;;;;;;;;;5014526;28;20057;-58
2022/03/21 06:18:09;;;;;;;19.45;7.50;;;;;;;;;;5002996;28;20052;-57
2022/03/21 06:20:46;;;;;;;18.48;8.18;;;;;;;;;;5013095;28;20058;-55
2022/03/21 06:23:13;;;;;;;20.40;8.05;;;;;;;;;;5010138;28;20053;-57
2022/03/21 06:25:39;;;;;;;21.67;8.13;;;;;;;;;;5014922;28;20048;-57
2022/03/21 06:28:06;;;;;;;19.40;8.02;;;;;;;;;;5006766;28;20142;-57
2022/03/21 06:30:34;;;;;;;21.40;8.73;;;;;;;;;;5013842;28;20046;-57
2022/03/21 06:33:00;;;;;;;29.88;10.95;;;;;;;;;;5008257;28;20639;-57
2022/03/21 06:35:27;;;;;;;30.20;11.85;;;;;;;;;;5011939;28;20511;-56
2022/03/21 06:37:55;;;;;;;24.30;9.85;;;;;;;;;;5005470;28;20057;-57
2022/03/21 06:40:23;;;;;;;22.27;8.27;;;;;;;;;;5012297;28;20060;-57
2022/03/21 06:42:50;;;;;;;24.38;10.43;;;;;;;;;;5013043;28;20051;-57
2022/03/21 06:45:16;;;;;;;21.17;8.65;;;;;;;;;;4989458;28;20053;-57
2022/03/21 06:47:43;;;;;;;27.98;8.68;;;;;;;;;;4994735;28;20100;-56
2022/03/21 06:50:11;;;;;;;25.80;9.52;;;;;;;;;;5004470;28;20588;-58
2022/03/21 06:52:44;;;;;;;22.67;9.00;;;;;;;;;;5013868;28;20064;-58
2022/03/21 06:55:12;;;;;;;16.38;7.90;;;;;;;;;;5002945;28;20050;-58
2022/03/21 06:57:39;;;;;;;23.13;7.47;;;;;;;;;;5008306;28;20044;-57
2022/03/21 07:00:06;;;;;;;25.85;8.68;;;;;;;;;;5005680;28;20049;-57
2022/03/21 07:02:34;;;;;;;25.73;10.02;;;;;;;;;;5011856;28;20061;-59
2022/03/21 07:05:01;;;;;;;24.30;10.00;;;;;;;;;;5006496;28;20053;-56
2022/03/21 07:07:27;;;;;;;27.00;10.15;;;;;;;;;;5011630;28;20045;-57
2022/03/21 07:09:55;;;;;;;29.75;10.88;;;;;;;;;;5006216;28;20088;-56
2022/03/21 07:12:26;;;;;;;30.33;11.23;;;;;;;;;;5011907;28;20053;-58
2022/03/21 07:14:52;;;;;;;33.63;12.52;;;;;;;;;;5005416;28;20083;-55
2022/03/21 07:17:20;;;;;;;28.20;11.45;;;;;;;;;;5009206;28;20111;-57
2022/03/21 07:19:46;;;;;;;23.20;10.40;;;;;;;;;;5005664;28;20049;-60
2022/03/21 07:22:14;;;;;;;21.65;9.05;;;;;;;;;;5011462;28;20057;-59
2022/03/21 07:24:41;;;;;;;28.58;10.88;;;;;;;;;;5006220;28;20054;-58
2022/03/21 07:27:08;;;;;;;27.80;11.38;;;;;;;;;;4991672;28;20456;-60
2022/03/21 07:29:36;;;;;;;23.63;11.00;;;;;;;;;;4991448;28;20507;-61
2022/03/21 07:32:03;;;;;;;26.67;10.97;;;;;;;;;;5017253;28;20046;-60
2022/03/21 07:34:29;;;;;;;26.30;10.90;;;;;;;;;;4998249;28;20308;-62
2022/03/21 07:36:56;;;;;;;29.13;10.65;;;;;;;;;;5019978;28;20049;-60
2022/03/21 07:39:23;;;;;;;24.08;9.98;;;;;;;;;;5030973;28;20096;-61
2022/03/21 07:41:52;;;;;;;17.83;7.75;;;;;;;;;;5009032;28;20116;-61
2022/03/21 07:47:20;;;;;;;21.80;9.13;;;;;;;;;;5002955;28;20088;-57
2022/03/21 07:49:48;;;;;;;18.48;7.70;;;;;;;;;;5027330;28;20049;-59
2022/03/21 07:52:18;;;;;;;30.75;8.68;;;;;;;;;;5004905;28;20054;-59
2022/03/21 07:54:44;;;;;;;19.80;8.43;;;;;;;;;;5011314;28;20491;-57
2022/03/21 07:57:11;;;;;;;22.98;8.52;;;;;;;;;;5014986;28;20435;-57
2022/03/21 07:59:37;;;;;;;28.83;7.93;;;;;;;;;;5030600;28;20414;-57
2022/03/21 08:02:06;;;;;;;20.83;8.93;;;;;;;;;;5014638;28;20522;-57
2022/03/21 08:04:33;;;;;;;22.70;8.98;;;;;;;;;;5011973;28;20089;-58
2022/03/21 08:07:00;;;;;;;21.98;8.73;;;;;;;;;;4992340;28;20053;-58
2022/03/21 08:09:28;;;;;;;16.40;6.57;;;;;;;;;;5011144;28;20139;-58
2022/03/21 08:12:00;;;;;;;19.20;7.65;;;;;;;;;;4992590;28;20170;-57
2022/03/21 08:14:27;;;;;;;21.25;7.68;;;;;;;;;;5010230;28;20061;-60
2022/03/21 08:16:53;;;;;;;21.70;7.38;;;;;;;;;;5010957;28;20684;-58
2022/03/21 08:19:24;;;;;;;20.15;6.78;;;;;;;;;;5000013;28;20057;-57
2022/03/21 08:21:52;;;;;;;18.25;5.57;;;;;;;;;;5010545;28;20080;-60
2022/03/21 08:24:19;;;;;;;15.75;5.63;;;;;;;;;;5000095;28;20053;-58
2022/03/21 08:26:46;;;;;;;15.15;5.95;;;;;;;;;;5011160;28;20053;-59
2022/03/21 08:29:15;;;;;;;19.20;6.28;;;;;;;;;;5004546;28;20057;-59
2022/03/21 08:31:45;;;;;;;18.88;6.38;;;;;;;;;;5005607;28;20151;-58
2022/03/21 08:34:12;;;;;;;17.58;6.05;;;;;;;;;;5006080;28;20495;-58
2022/03/21 08:36:40;;;;;;;13.55;5.15;;;;;;;;;;4995781;28;20049;-58
2022/03/21 08:39:09;;;;;;;16.45;5.65;;;;;;;;;;5010501;28;20573;-59
2022/03/21 08:41:37;;;;;;;19.83;6.63;;;;;;;;;;4999762;28;20116;-58
2022/03/21 08:44:04;;;;;;;22.40;7.05;;;;;;;;;;5009850;28;20065;-58
2022/03/21 08:46:30;;;;;;;21.45;6.70;;;;;;;;;;5004372;28;20045;-58
2022/03/21 08:51:46;;;;;;;21.55;6.78;;;;;;;;;;5006916;28;20058;-55
2022/03/21 08:54:13;;;;;;;23.00;7.55;;;;;;;;;;4999468;28;20471;-57
2022/03/21 08:56:39;;;;;;;22.73;7.10;;;;;;;;;;5009928;28;20482;-57
2022/03/21 08:59:06;;;;;;;18.17;6.90;;;;;;;;;;5000404;28;20045;-59
2022/03/21 09:01:33;;;;;;;20.33;7.85;;;;;;;;;;5010596;28;20091;-57
2022/03/21 09:04:00;;;;;;;16.90;6.78;;;;;;;;;;5000052;28;20142;-59
2022/03/21 09:06:27;;;;;;;19.48;7.32;;;;;;;;;;5007935;28;20049;-60
2022/03/21 09:08:55;;;;;;;19.60;7.82;;;;;;;;;;5010630;28;20058;-61
2022/03/21 09:11:22;;;;;;;15.55;6.00;;;;;;;;;;4996493;28;20065;-58
2022/03/21 09:13:49;;;;;;;20.17;6.57;;;;;;;;;;5009797;28;20057;-55
2022/03/21 09:16:16;;;;;;;15.80;6.05;;;;;;;;;;4995904;28;20060;-59
2022/03/21 09:18:44;;;;;;;23.10;7.90;;;;;;;;;;5010711;28;20053;-58
2022/03/21 09:21:11;;;;;;;19.63;8.45;;;;;;;;;;5002693;28;20049;-58
2022/03/21 09:23:38;;;;;;;17.70;6.97;;;;;;;;;;4990205;28;20569;-57
2022/03/21 09:26:10;;;;;;;19.88;7.90;;;;;;;;;;4990651;28;20135;-61
2022/03/21 09:28:37;;;;;;;22.23;7.82;;;;;;;;;;4988914;28;20061;-58
2022/03/21 09:31:06;;;;;;;24.25;7.90;;;;;;;;;;4990301;28;20058;-57
2022/03/21 09:33:33;;;;;;;19.60;7.68;;;;;;;;;;4992483;28;20050;-62
2022/03/21 09:35:59;;;;;;;23.23;9.60;;;;;;;;;;4992397;28;20060;-61
2022/03/21 09:38:26;;;;;;;25.63;10.35;;;;;;;;;;4986725;28;20065;-58
2022/03/21 09:40:53;;;;;;;27.42;10.02;;;;;;;;;;4991817;28;20057;-59
2022/03/21 09:43:21;;;;;;;22.55;9.02;;;;;;;;;;4996283;28;20053;-59
2022/03/21 09:45:48;;;;;;;24.08;9.50;;;;;;;;;;5009747;28;20064;-59
2022/03/21 09:48:17;;;;;;;22.20;8.27;;;;;;;;;;4992333;28;20081;-59
2022/03/21 09:50:45;;;;;;;20.13;7.05;;;;;;;;;;4990140;28;20057;-60
2022/03/21 09:53:13;;;;;;;21.10;7.28;;;;;;;;;;4984303;28;20083;-59
2022/03/21 09:55:40;;;;;;;21.15;8.57;;;;;;;;;;4993010;28;20062;-61
2022/03/21 09:58:09;;;;;;;26.02;9.00;;;;;;;;;;4988082;28;20100;-59
2022/03/21 10:00:38;;;;;;;24.13;8.52;;;;;;;;;;5010186;28;20062;-58
2022/03/21 10:03:05;;;;;;;15.93;6.97;;;;;;;;;;4994377;28;20046;-60
2022/03/21 10:05:35;;;;;;;19.23;7.60;;;;;;;;;;5027939;28;20053;-61
2022/03/21 10:08:16;;;;;;;19.70;8.88;;;;;;;;;;5024117;28;20049;-62
2022/03/21 10:10:51;;;;;;;22.38;7.03;;;;;;;;;;5013516;28;20058;-60
2022/03/21 10:13:18;;;;;;;22.13;7.97;;;;;;;;;;5005025;28;20046;-61
2022/03/21 10:15:47;;;;;;;22.67;8.35;;;;;;;;;;5013586;28;20061;-61
2022/03/21 10:18:18;;;;;;;21.35;8.23;;;;;;;;;;5007716;28;20145;-59
2022/03/21 10:20:45;;;;;;;19.42;8.10;;;;;;;;;;5012442;28;20063;-60
2022/03/21 10:23:15;;;;;;;19.25;8.48;;;;;;;;;;5012622;28;20053;-59
2022/03/21 10:25:42;;;;;;;20.08;8.05;;;;;;;;;;5006175;28;20055;-59
2022/03/21 10:28:09;;;;;;;17.48;7.38;;;;;;;;;;5009004;28;20077;-59
2022/03/21 10:30:48;;;;;;;24.65;7.63;;;;;;;;;;5004024;28;20046;-59
2022/03/21 10:33:23;;;;;;;20.42;8.35;;;;;;;;;;5013207;28;20084;-61
2022/03/21 10:35:50;;;;;;;24.67;8.77;;;;;;;;;;5001848;28;20184;-60
2022/03/21 10:38:29;;;;;;;26.98;7.50;;;;;;;;;;5008675;28;20060;-62
2022/03/21 10:40:56;;;;;;;24.63;8.55;;;;;;;;;;5013297;28;20061;-61
2022/03/21 10:43:23;;;;;;;20.67;8.35;;;;;;;;;;5012340;28;20065;-58
2022/03/21 10:45:52;;;;;;;22.85;8.63;;;;;;;;;;5003339;28;20499;-59
2022/03/21 10:48:20;;;;;;;23.20;7.57;;;;;;;;;;5010006;28;20092;-59
2022/03/21 10:50:47;;;;;;;20.67;8.10;;;;;;;;;;4994615;28;20061;-59
2022/03/21 10:53:15;;;;;;;26.73;8.57;;;;;;;;;;5012595;28;20111;-59
2022/03/21 10:55:42;;;;;;;21.23;8.50;;;;;;;;;;5013965;28;20058;-58
2022/03/21 10:58:09;;;;;;;18.58;7.20;;;;;;;;;;4999742;28;20088;-60
2022/03/21 11:00:37;;;;;;;18.13;8.40;;;;;;;;;;5004625;28;20057;-60
2022/03/21 11:03:06;;;;;;;27.37;10.13;;;;;;;;;;5012488;28;20069;-61
2022/03/21 11:05:35;;;;;;;20.67;8.73;;;;;;;;;;5001847;28;20366;-61
2022/03/21 11:08:02;;;;;;;26.60;9.43;;;;;;;;;;5013474;28;20053;-62
2022/03/21 11:10:29;;;;;;;20.65;8.18;;;;;;;;;;5005335;28;20589;-62
2022/03/21 11:12:57;;;;;;;17.08;6.97;;;;;;;;;;5008753;28;20131;-60
2022/03/21 11:15:24;;;;;;;22.52;9.90;;;;;;;;;;5011929;28;20092;-59
2022/03/21 11:17:51;;;;;;;28.88;10.77;;;;;;;;;;5000592;28;20049;-64
2022/03/21 11:20:19;;;;;;;24.02;9.75;;;;;;;;;;5011900;28;20062;-64
2022/03/21 11:22:45;;;;;;;20.92;8.82;;;;;;;;;;5001107;28;20060;-64
2022/03/21 11:25:13;;;;;;;19.42;9.25;;;;;;;;;;5011740;28;20053;-61
2022/03/21 11:27:49;;;;;;;15.95;6.75;;;;;;;;;;5005392;28;20144;-62
2022/03/21 11:30:18;;;;;;;20.13;7.97;;;;;;;;;;5008262;28;20053;-64
2022/03/21 11:32:50;;;;;;;15.32;6.57;;;;;;;;;;5011637;28;20072;-63
2022/03/21 11:35:18;;;;;;;18.08;7.35;;;;;;;;;;5000055;28;20056;-63
2022/03/21 11:37:46;;;;;;;15.70;6.50;;;;;;;;;;5011128;28;20050;-62
2022/03/21 11:40:30;;;;;;;17.70;7.53;;;;;;;;;;4998399;28;20061;-64
2022/03/21 11:43:17;;;;;;;21.50;9.82;;;;;;;;;;5010847;28;20053;-62
2022/03/21 11:45:44;;;;;;;22.58;8.55;;;;;;;;;;4999963;28;20149;-62
2022/03/21 11:48:28;;;;;;;24.40;9.48;;;;;;;;;;5010306;28;20077;-58
2022/03/21 11:51:13;;;;;;;18.00;6.57;;;;;;;;;;5005132;28;20128;-60
2022/03/21 11:53:46;;;;;;;22.90;9.63;;;;;;;;;;5009386;28;20116;-60
2022/03/21 11:56:15;;;;;;;18.63;8.45;;;;;;;;;;5010709;28;20053;-63
2022/03/21 11:58:42;;;;;;;;;;;;;;;;;;5000174;28;20049;-60
2022/03/21 12:01:12;;;;;;;25.80;9.30;;;;;;;;;;5011193;28;19925;-59
2022/03/21 12:03:41;;;;;;;23.17;9.20;;;;;;;;;;5000931;28;20065;-65
2022/03/21 12:06:07;;;;;;;;;;;;;;;;;;5011564;28;20072;-61
2022/03/21 12:08:51;;;;;;;19.52;8.05;;;;;;;;;;4997831;28;20019;-62
2022/03/21 12:11:48;;;;;;;16.67;7.70;;;;;;;;;;5010317;28;20402;-63
2022/03/21 12:14:28;;;;;;;18.42;7.95;;;;;;;;;;4999550;28;20089;-63
2022/03/21 12:17:14;;;;;;;19.80;8.32;;;;;;;;;;4971715;28;20058;-64
2022/03/21 12:19:57;;;;;;;24.00;9.25;;;;;;;;;;4966361;28;20128;-60
2022/03/21 12:22:35;;;;;;;28.15;11.02;;;;;;;;;;4992021;28;20057;-61
2022/03/21 12:25:06;;;;;;;19.10;7.50;;;;;;;;;;4986813;28;20224;-59
2022/03/21 12:27:34;;;;;;;18.42;8.35;;;;;;;;;;4994812;28;20045;-64
2022/03/21 12:30:22;;;;;;;25.20;10.13;;;;;;;;;;5006251;28;20057;-62
2022/03/21 12:32:49;;;;;;;20.90;9.25;;;;;;;;;;4941768;28;20054;-61
2022/03/21 12:35:30;;;;;;;26.60;9.63;;;;;;;;;;4977417;28;20073;-59
2022/03/21 12:38:00;;;;;;;21.48;9.02;;;;;;;;;;4993188;28;20100;-65
2022/03/21 12:40:29;;;;;;;16.98;8.23;;;;;;;;;;4988091;28;20046;-63
2022/03/21 12:42:57;;;;;;;29.42;10.55;;;;;;;;;;5003406;28;20058;-65
2022/03/21 12:45:25;;;;;;;28.98;10.88;;;;;;;;;;4992309;28;20109;-62
2022/03/21 12:47:51;;;;;;;16.33;7.43;;;;;;;;;;4985229;28;20045;-60
2022/03/21 12:50:20;;;;;;;20.35;8.85;;;;;;;;;;4990152;28;20057;-65
2022/03/21 12:52:46;;;;;;;;;;;;;;;;;;4985046;28;20046;-62
2022/03/21 12:55:15;;;;;;;19.55;7.93;;;;;;;;;;4990845;28;19947;-63
2022/03/21 12:57:54;;;;;;;18.27;9.05;;;;;;;;;;4985022;28;20046;-64
2022/03/21 13:00:22;;;;;;;17.13;7.43;;;;;;;;;;4990888;28;20060;-66
2022/03/21 13:02:51;;;;;;;19.47;8.67;;;;;;;;;;5001273;28;20089;-67
2022/03/21 13:10:45;;;;;;;21.25;9.35;;;;;;;;;;4997552;28;20065;-60
2022/03/21 13:13:13;;;;;;;25.70;8.60;;;;;;;;;;4994939;28;20061;-63
2022/03/21 13:15:40;;;;;;;26.02;10.40;;;;;;;;;;5010340;28;20069;-65
2022/03/21 13:18:07;;;;;;;26.05;11.60;;;;;;;;;;4998828;28;20064;-62
2022/03/21 13:20:35;;;;;;;29.38;9.82;;;;;;;;;;5009708;28;20057;-60
2022/03/21 13:23:03;;;;;;;22.75;8.65;;;;;;;;;;5010590;28;20061;-62
2022/03/21 13:25:30;;;;;;;20.92;9.07;;;;;;;;;;5000009;28;20053;-63
2022/03/21 13:28:06;;;;;;;24.00;9.32;;;;;;;;;;5000278;28;20049;-59
2022/03/21 13:30:35;;;;;;;17.83;8.63;;;;;;;;;;5002248;28;20053;-62
2022/03/21 13:33:02;;;;;;;23.52;10.27;;;;;;;;;;5013641;28;20083;-61
2022/03/21 13:35:28;;;;;;;23.45;9.25;;;;;;;;;;5004049;28;20060;-66
2022/03/21 13:38:02;;;;;;;21.10;9.82;;;;;;;;;;5013580;28;20050;-63
2022/03/21 13:40:29;;;;;;;21.92;9.20;;;;;;;;;;5014402;28;20092;-60
2022/03/21 13:42:55;;;;;;;22.08;10.38;;;;;;;;;;5002211;28;20053;-63
2022/03/21 13:45:22;;;;;;;22.40;9.57;;;;;;;;;;5013046;28;20057;-62
2022/03/21 13:47:52;;;;;;;23.08;11.20;;;;;;;;;;5003345;28;20059;-65
2022/03/21 13:50:18;;;;;;;20.15;10.05;;;;;;;;;;5012920;28;20045;-66
2022/03/21 13:52:46;;;;;;;27.45;11.63;;;;;;;;;;5003503;28;20064;-64
2022/03/21 13:55:14;;;;;;;20.10;8.98;;;;;;;;;;5012972;28;20137;-66
2022/03/21 13:57:44;;;;;;;21.90;9.07;;;;;;;;;;5013470;28;20103;-67
2022/03/21 14:00:11;;;;;;;21.55;10.27;;;;;;;;;;5002422;28;20057;-67
2022/03/21 14:02:39;;;;;;;21.38;10.07;;;;;;;;;;4997193;28;20100;-60
2022/03/21 14:05:14;;;;;;;18.40;9.20;;;;;;;;;;4992346;28;20076;-65
2022/03/21 14:07:40;;;;;;;20.63;10.20;;;;;;;;;;4993651;28;20058;-62
2022/03/21 14:10:14;;;;;;;22.27;10.02;;;;;;;;;;4986740;28;20056;-63
2022/03/21 14:12:41;;;;;;;21.42;9.13;;;;;;;;;;4994664;28;20058;-65
2022/03/21 14:15:08;;;;;;;22.83;9.85;;;;;;;;;;4995748;28;20046;-62
2022/03/21 14:17:35;;;;;;;19.40;9.20;;;;;;;;;;4998067;28;20057;-65
2022/03/21 14:20:01;;;;;;;23.65;10.48;;;;;;;;;;5013030;28;20057;-59
2022/03/21 14:22:30;;;;;;;20.55;9.93;;;;;;;;;;5003736;28;20053;-62
2022/03/21 14:24:57;;;;;;;21.73;10.45;;;;;;;;;;4997841;28;20145;-61
2022/03/21 14:27:24;;;;;;;28.40;11.95;;;;;;;;;;4986988;28;20129;-64
2022/03/21 14:29:50;;;;;;;24.15;11.00;;;;;;;;;;5010470;28;20057;-60
2022/03/21 14:32:19;;;;;;;23.27;10.23;;;;;;;;;;4987069;28;20049;-59
2022/03/21 14:34:46;;;;;;;22.25;9.57;;;;;;;;;;4991471;28;20072;-61
2022/03/21 14:37:12;;;;;;;26.38;11.60;;;;;;;;;;4985758;28;20133;-62
2022/03/21 14:39:40;;;;;;;24.25;10.90;;;;;;;;;;4992036;28;20057;-61
2022/03/21 14:42:08;;;;;;;24.67;11.20;;;;;;;;;;4986112;28;20046;-65
2022/03/21 14:44:34;;;;;;;27.13;10.95;;;;;;;;;;4992579;28;20053;-64
2022/03/21 14:47:01;;;;;;;25.60;10.82;;;;;;;;;;4984185;28;20057;-66
2022/03/21 14:49:28;;;;;;;28.27;13.40;;;;;;;;;;4984412;28;20042;-61
2022/03/21 14:51:54;;;;;;;23.73;11.10;;;;;;;;;;4973927;28;20069;-66
2022/03/21 14:54:21;;;;;;;24.33;10.48;;;;;;;;;;4984663;28;20062;-61
2022/03/21 14:56:49;;;;;;;24.77;10.38;;;;;;;;;;4991815;28;20053;-62
2022/03/21 14:59:16;;;;;;;24.80;10.68;;;;;;;;;;4985984;28;20057;-67
2022/03/21 15:01:45;;;;;;;23.05;11.10;;;;;;;;;;4992510;28;20054;-63
2022/03/21 15:04:11;;;;;;;28.08;11.68;;;;;;;;;;4980849;28;20173;-60
2022/03/21 15:06:38;;;;;;;21.95;10.73;;;;;;;;;;4990842;28;20060;-59